LFOB/BVA METAR and TAF weather

Enter ICAO airport designator
Station Type Date Time Source
LFOB METAR 2021/01/16 03:00 UTC NOAA

LFOB 160300Z AUTO 28002KT 6000 NSC M04/M04 Q1030 TEMPO 4000 BR


Station Type Date Time Source
LFOB Decoded METAR 2021/01/16 03:00 UTC NOAA

Beauvais, France (LFOB) 49-28N 002-07E 111M
Jan 15, 2021 - 10:00 PM EST / 2021.01.16 0300 UTC
Wind: from the W (280 degrees) at 2 MPH (2 KT):0
Visibility: 3 mile(s):0
Temperature: 24 F (-4 C)
Dew Point: 24 F (-4 C)
Relative Humidity: 100%
Pressure (altimeter): 30.42 in. Hg (1030 hPa)
ob: LFOB 160300Z AUTO 28002KT 6000 NSC M04/M04 Q1030 TEMPO 4000 BR
cycle: 3

Station Type Date Time Source
LFOB TAF 2021/01/15 18:45 UTC NOAA

TAF TAF LFOB 151700Z 1518/1618 03006KT 9999 SCT030 PROB30 1523/1606 4000 BR
BECMG 1606/1608 16010KT
BECMG 1608/1610 2000 SNRA OVC010
TEMPO 1610/1614 0600 SN FG OVC005 PROB40
TEMPO 1610/1615 FZRA PROB30
TEMPO 1614/1617 16015G25KT
BECMG 1614/1616 RA
BECMG 1616/1618 23010KT 9999 NSW BKN030

Example: see airport list